sensor_id;sensor_type;location;lat;lon;timestamp;P1;durP1;ratioP1;P2;durP2;ratioP2
13366;SDS011;6752;52.612;13.630;2023-07-29T00:03:04;6.47;;;5.83;;
13366;SDS011;6752;52.612;13.630;2023-07-29T00:08:07;7.50;;;6.80;;
13366;SDS011;6752;52.612;13.630;2023-07-29T00:13:09;9.37;;;8.20;;
13366;SDS011;6752;52.612;13.630;2023-07-29T00:18:11;7.50;;;6.80;;
13366;SDS011;6752;52.612;13.630;2023-07-29T00:23:14;7.93;;;7.10;;
13366;SDS011;6752;52.612;13.630;2023-07-29T00:28:16;6.30;;;5.70;;
13366;SDS011;6752;52.612;13.630;2023-07-29T00:33:19;5.23;;;4.17;;
13366;SDS011;6752;52.612;13.630;2023-07-29T00:38:21;6.40;;;4.80;;
13366;SDS011;6752;52.612;13.630;2023-07-29T00:43:23;7.73;;;5.30;;
13366;SDS011;6752;52.612;13.630;2023-07-29T00:48:26;8.03;;;5.90;;
13366;SDS011;6752;52.612;13.630;2023-07-29T00:53:28;7.27;;;6.00;;
13366;SDS011;6752;52.612;13.630;2023-07-29T00:58:30;7.03;;;6.32;;
13366;SDS011;6752;52.612;13.630;2023-07-29T01:03:33;6.53;;;5.57;;
13366;SDS011;6752;52.612;13.630;2023-07-29T01:19:05;5.20;;;4.53;;
13366;SDS011;6752;52.612;13.630;2023-07-29T01:24:06;4.90;;;4.27;;
13366;SDS011;6752;52.612;13.630;2023-07-29T01:29:09;6.27;;;5.50;;
13366;SDS011;6752;52.612;13.630;2023-07-29T01:34:13;7.30;;;5.93;;
13366;SDS011;6752;52.612;13.630;2023-07-29T01:39:16;5.60;;;5.00;;
13366;SDS011;6752;52.612;13.630;2023-07-29T01:44:18;7.73;;;5.27;;
13366;SDS011;6752;52.612;13.630;2023-07-29T01:49:21;5.30;;;4.60;;
13366;SDS011;6752;52.612;13.630;2023-07-29T01:54:23;4.67;;;4.10;;
13366;SDS011;6752;52.612;13.630;2023-07-29T01:59:25;4.67;;;4.17;;
13366;SDS011;6752;52.612;13.630;2023-07-29T02:04:28;4.63;;;3.97;;
13366;SDS011;6752;52.612;13.630;2023-07-29T02:09:30;4.63;;;4.13;;
13366;SDS011;6752;52.612;13.630;2023-07-29T02:14:33;4.60;;;4.20;;
13366;SDS011;6752;52.612;13.630;2023-07-29T02:19:35;4.03;;;3.67;;
13366;SDS011;6752;52.612;13.630;2023-07-29T02:24:37;5.93;;;3.63;;
13366;SDS011;6752;52.612;13.630;2023-07-29T02:29:40;4.47;;;3.67;;
13366;SDS011;6752;52.612;13.630;2023-07-29T02:34:42;6.67;;;4.77;;
13366;SDS011;6752;52.612;13.630;2023-07-29T02:39:44;5.70;;;4.30;;
13366;SDS011;6752;52.612;13.630;2023-07-29T02:44:47;3.50;;;3.20;;
13366;SDS011;6752;52.612;13.630;2023-07-29T02:49:49;5.00;;;4.07;;
13366;SDS011;6752;52.612;13.630;2023-07-29T02:54:51;3.90;;;3.53;;
13366;SDS011;6752;52.612;13.630;2023-07-29T02:59:54;5.80;;;3.40;;
13366;SDS011;6752;52.612;13.630;2023-07-29T03:04:56;4.93;;;3.63;;
13366;SDS011;6752;52.612;13.630;2023-07-29T03:09:59;5.80;;;3.87;;
13366;SDS011;6752;52.612;13.630;2023-07-29T03:15:01;4.17;;;3.43;;
13366;SDS011;6752;52.612;13.630;2023-07-29T03:20:03;3.60;;;3.30;;
13366;SDS011;6752;52.612;13.630;2023-07-29T03:25:06;4.23;;;3.87;;
13366;SDS011;6752;52.612;13.630;2023-07-29T03:30:08;6.27;;;4.07;;
13366;SDS011;6752;52.612;13.630;2023-07-29T03:35:10;3.47;;;3.17;;
13366;SDS011;6752;52.612;13.630;2023-07-29T03:40:13;3.60;;;3.17;;
13366;SDS011;6752;52.612;13.630;2023-07-29T03:45:15;3.90;;;3.47;;
13366;SDS011;6752;52.612;13.630;2023-07-29T03:50:18;4.90;;;4.20;;
13366;SDS011;6752;52.612;13.630;2023-07-29T03:55:20;4.93;;;4.23;;
13366;SDS011;6752;52.612;13.630;2023-07-29T04:00:22;7.00;;;5.50;;
13366;SDS011;6752;52.612;13.630;2023-07-29T04:05:25;15.17;;;6.97;;
13366;SDS011;6752;52.612;13.630;2023-07-29T04:10:27;13.80;;;6.33;;
13366;SDS011;6752;52.612;13.630;2023-07-29T04:15:29;5.20;;;4.70;;
13366;SDS011;6752;52.612;13.630;2023-07-29T04:20:32;5.10;;;4.23;;
13366;SDS011;6752;52.612;13.630;2023-07-29T04:25:34;4.80;;;4.30;;
13366;SDS011;6752;52.612;13.630;2023-07-29T04:30:36;5.20;;;4.70;;
13366;SDS011;6752;52.612;13.630;2023-07-29T04:35:39;5.70;;;4.60;;
13366;SDS011;6752;52.612;13.630;2023-07-29T04:40:41;6.17;;;5.57;;
13366;SDS011;6752;52.612;13.630;2023-07-29T04:45:44;5.37;;;4.40;;
13366;SDS011;6752;52.612;13.630;2023-07-29T04:50:46;7.10;;;6.40;;
13366;SDS011;6752;52.612;13.630;2023-07-29T04:55:48;6.53;;;5.93;;
13366;SDS011;6752;52.612;13.630;2023-07-29T05:00:51;7.13;;;6.40;;
13366;SDS011;6752;52.612;13.630;2023-07-29T05:05:53;8.30;;;7.50;;
13366;SDS011;6752;52.612;13.630;2023-07-29T05:10:55;9.13;;;6.97;;
13366;SDS011;6752;52.612;13.630;2023-07-29T05:15:58;9.00;;;8.20;;
13366;SDS011;6752;52.612;13.630;2023-07-29T05:21:00;7.70;;;7.00;;
13366;SDS011;6752;52.612;13.630;2023-07-29T05:26:02;8.90;;;8.10;;
13366;SDS011;6752;52.612;13.630;2023-07-29T05:31:05;9.67;;;8.67;;
13366;SDS011;6752;52.612;13.630;2023-07-29T05:36:07;10.07;;;9.13;;
13366;SDS011;6752;52.612;13.630;2023-07-29T05:41:10;10.00;;;9.10;;
13366;SDS011;6752;52.612;13.630;2023-07-29T05:46:12;11.63;;;10.47;;
13366;SDS011;6752;52.612;13.630;2023-07-29T05:51:14;10.07;;;9.27;;
13366;SDS011;6752;52.612;13.630;2023-07-29T05:56:17;10.55;;;9.65;;
13366;SDS011;6752;52.612;13.630;2023-07-29T06:01:19;8.83;;;8.07;;
13366;SDS011;6752;52.612;13.630;2023-07-29T06:06:21;9.33;;;8.53;;
13366;SDS011;6752;52.612;13.630;2023-07-29T06:11:24;9.60;;;8.70;;
13366;SDS011;6752;52.612;13.630;2023-07-29T06:16:26;9.03;;;8.23;;
13366;SDS011;6752;52.612;13.630;2023-07-29T06:21:28;8.97;;;8.17;;
13366;SDS011;6752;52.612;13.630;2023-07-29T06:26:31;8.70;;;7.90;;
13366;SDS011;6752;52.612;13.630;2023-07-29T06:31:33;9.20;;;8.40;;
13366;SDS011;6752;52.612;13.630;2023-07-29T06:36:36;8.40;;;7.60;;
13366;SDS011;6752;52.612;13.630;2023-07-29T06:41:38;8.70;;;8.00;;
13366;SDS011;6752;52.612;13.630;2023-07-29T06:46:40;8.87;;;8.07;;
13366;SDS011;6752;52.612;13.630;2023-07-29T06:51:43;8.23;;;7.53;;
13366;SDS011;6752;52.612;13.630;2023-07-29T06:56:45;7.93;;;7.13;;
13366;SDS011;6752;52.612;13.630;2023-07-29T07:01:47;8.00;;;7.20;;
13366;SDS011;6752;52.612;13.630;2023-07-29T07:06:50;6.63;;;6.03;;
13366;SDS011;6752;52.612;13.630;2023-07-29T07:11:52;6.33;;;5.73;;
13366;SDS011;6752;52.612;13.630;2023-07-29T07:16:54;5.40;;;4.90;;
13366;SDS011;6752;52.612;13.630;2023-07-29T07:21:57;6.30;;;5.80;;
13366;SDS011;6752;52.612;13.630;2023-07-29T07:26:59;5.63;;;5.13;;
13366;SDS011;6752;52.612;13.630;2023-07-29T07:32:02;5.70;;;5.20;;
13366;SDS011;6752;52.612;13.630;2023-07-29T07:37:04;5.70;;;5.20;;
13366;SDS011;6752;52.612;13.630;2023-07-29T07:42:06;5.47;;;4.97;;
13366;SDS011;6752;52.612;13.630;2023-07-29T07:47:09;5.83;;;4.90;;
13366;SDS011;6752;52.612;13.630;2023-07-29T07:52:11;5.30;;;4.40;;
13366;SDS011;6752;52.612;13.630;2023-07-29T07:57:13;4.87;;;4.43;;
13366;SDS011;6752;52.612;13.630;2023-07-29T08:02:16;4.20;;;3.90;;
13366;SDS011;6752;52.612;13.630;2023-07-29T08:07:18;6.70;;;5.07;;
13366;SDS011;6752;52.612;13.630;2023-07-29T08:12:20;4.87;;;4.37;;
13366;SDS011;6752;52.612;13.630;2023-07-29T08:17:23;5.30;;;4.63;;
13366;SDS011;6752;52.612;13.630;2023-07-29T08:22:25;5.97;;;5.47;;
13366;SDS011;6752;52.612;13.630;2023-07-29T08:27:27;4.97;;;4.47;;
13366;SDS011;6752;52.612;13.630;2023-07-29T08:32:30;5.43;;;4.93;;
13366;SDS011;6752;52.612;13.630;2023-07-29T08:37:32;5.77;;;5.17;;
13366;SDS011;6752;52.612;13.630;2023-07-29T08:42:35;5.13;;;4.67;;
13366;SDS011;6752;52.612;13.630;2023-07-29T08:47:37;4.43;;;4.03;;
13366;SDS011;6752;52.612;13.630;2023-07-29T08:52:39;5.63;;;5.13;;
13366;SDS011;6752;52.612;13.630;2023-07-29T08:57:42;5.30;;;4.80;;
13366;SDS011;6752;52.612;13.630;2023-07-29T09:02:44;5.53;;;4.87;;
13366;SDS011;6752;52.612;13.630;2023-07-29T09:07:46;5.18;;;4.78;;
13366;SDS011;6752;52.612;13.630;2023-07-29T09:12:49;4.60;;;4.03;;
13366;SDS011;6752;52.612;13.630;2023-07-29T09:17:51;4.80;;;4.40;;
13366;SDS011;6752;52.612;13.630;2023-07-29T09:22:54;5.63;;;5.13;;
13366;SDS011;6752;52.612;13.630;2023-07-29T09:27:59;4.75;;;4.35;;
13366;SDS011;6752;52.612;13.630;2023-07-29T09:33:01;4.77;;;4.37;;
13366;SDS011;6752;52.612;13.630;2023-07-29T09:38:06;4.77;;;4.37;;
13366;SDS011;6752;52.612;13.630;2023-07-29T09:43:09;3.90;;;3.60;;
13366;SDS011;6752;52.612;13.630;2023-07-29T09:48:10;4.97;;;3.97;;
13366;SDS011;6752;52.612;13.630;2023-07-29T09:53:12;3.90;;;3.60;;
13366;SDS011;6752;52.612;13.630;2023-07-29T09:58:15;3.75;;;3.45;;
13366;SDS011;6752;52.612;13.630;2023-07-29T10:03:18;3.67;;;3.37;;
13366;SDS011;6752;52.612;13.630;2023-07-29T10:08:20;3.30;;;3.00;;
13366;SDS011;6752;52.612;13.630;2023-07-29T10:13:22;3.50;;;3.20;;
13366;SDS011;6752;52.612;13.630;2023-07-29T10:18:24;3.37;;;3.07;;
13366;SDS011;6752;52.612;13.630;2023-07-29T10:23:27;3.50;;;3.20;;
13366;SDS011;6752;52.612;13.630;2023-07-29T10:28:29;3.27;;;2.97;;
13366;SDS011;6752;52.612;13.630;2023-07-29T10:33:32;2.93;;;2.73;;
13366;SDS011;6752;52.612;13.630;2023-07-29T10:38:34;3.20;;;3.00;;
13366;SDS011;6752;52.612;13.630;2023-07-29T10:43:37;3.33;;;3.03;;
13366;SDS011;6752;52.612;13.630;2023-07-29T10:48:42;2.80;;;2.60;;
13366;SDS011;6752;52.612;13.630;2023-07-29T10:53:43;6.93;;;6.33;;
13366;SDS011;6752;52.612;13.630;2023-07-29T10:58:46;2.87;;;2.67;;
13366;SDS011;6752;52.612;13.630;2023-07-29T11:04:00;2.70;;;2.50;;
13366;SDS011;6752;52.612;13.630;2023-07-29T11:09:38;2.70;;;2.40;;
13366;SDS011;6752;52.612;13.630;2023-07-29T11:14:11;2.70;;;2.50;;
13366;SDS011;6752;52.612;13.630;2023-07-29T11:19:13;2.60;;;2.37;;
13366;SDS011;6752;52.612;13.630;2023-07-29T11:24:17;2.60;;;2.40;;
13366;SDS011;6752;52.612;13.630;2023-07-29T11:29:18;2.57;;;2.47;;
13366;SDS011;6752;52.612;13.630;2023-07-29T11:34:30;2.57;;;2.00;;
13366;SDS011;6752;52.612;13.630;2023-07-29T11:39:23;2.73;;;2.50;;
13366;SDS011;6752;52.612;13.630;2023-07-29T11:44:25;6.53;;;1.80;;
13366;SDS011;6752;52.612;13.630;2023-07-29T11:49:27;3.03;;;1.70;;
13366;SDS011;6752;52.612;13.630;2023-07-29T11:54:30;4.27;;;1.60;;
13366;SDS011;6752;52.612;13.630;2023-07-29T11:59:36;2.47;;;1.50;;
13366;SDS011;6752;52.612;13.630;2023-07-29T12:04:34;1.50;;;1.40;;
13366;SDS011;6752;52.612;13.630;2023-07-29T12:09:37;1.97;;;1.57;;
13366;SDS011;6752;52.612;13.630;2023-07-29T12:14:42;1.30;;;1.20;;
13366;SDS011;6752;52.612;13.630;2023-07-29T12:19:42;1.40;;;1.10;;
13366;SDS011;6752;52.612;13.630;2023-07-29T12:24:44;1.70;;;1.00;;
13366;SDS011;6752;52.612;13.630;2023-07-29T12:29:46;2.07;;;1.13;;
13366;SDS011;6752;52.612;13.630;2023-07-29T12:34:49;1.80;;;1.12;;
13366;SDS011;6752;52.612;13.630;2023-07-29T12:39:51;1.23;;;1.13;;
13366;SDS011;6752;52.612;13.630;2023-07-29T12:44:53;1.93;;;1.27;;
13366;SDS011;6752;52.612;13.630;2023-07-29T12:49:56;1.67;;;1.07;;
13366;SDS011;6752;52.612;13.630;2023-07-29T12:54:58;2.13;;;1.10;;
13366;SDS011;6752;52.612;13.630;2023-07-29T13:00:01;1.03;;;0.83;;
13366;SDS011;6752;52.612;13.630;2023-07-29T13:05:03;1.90;;;1.00;;
13366;SDS011;6752;52.612;13.630;2023-07-29T13:10:05;1.13;;;1.00;;
13366;SDS011;6752;52.612;13.630;2023-07-29T13:15:07;1.23;;;1.03;;
13366;SDS011;6752;52.612;13.630;2023-07-29T13:20:10;1.10;;;1.10;;
13366;SDS011;6752;52.612;13.630;2023-07-29T13:25:12;1.07;;;1.07;;
13366;SDS011;6752;52.612;13.630;2023-07-29T13:30:14;1.37;;;1.27;;
13366;SDS011;6752;52.612;13.630;2023-07-29T13:35:17;2.07;;;1.60;;
13366;SDS011;6752;52.612;13.630;2023-07-29T13:40:19;2.33;;;1.90;;
13366;SDS011;6752;52.612;13.630;2023-07-29T13:45:22;3.20;;;2.20;;
13366;SDS011;6752;52.612;13.630;2023-07-29T13:50:24;3.00;;;2.60;;
13366;SDS011;6752;52.612;13.630;2023-07-29T13:55:26;4.67;;;2.50;;
13366;SDS011;6752;52.612;13.630;2023-07-29T14:00:29;3.17;;;2.23;;
13366;SDS011;6752;52.612;13.630;2023-07-29T14:05:31;2.60;;;2.40;;
13366;SDS011;6752;52.612;13.630;2023-07-29T14:10:33;2.90;;;2.70;;
13366;SDS011;6752;52.612;13.630;2023-07-29T14:15:36;2.60;;;2.40;;
13366;SDS011;6752;52.612;13.630;2023-07-29T14:20:38;4.20;;;2.43;;
13366;SDS011;6752;52.612;13.630;2023-07-29T14:25:40;2.50;;;2.30;;
13366;SDS011;6752;52.612;13.630;2023-07-29T14:30:43;2.90;;;1.83;;
13366;SDS011;6752;52.612;13.630;2023-07-29T14:35:45;1.90;;;1.80;;
13366;SDS011;6752;52.612;13.630;2023-07-29T14:40:48;2.47;;;1.67;;
13366;SDS011;6752;52.612;13.630;2023-07-29T14:45:50;1.30;;;1.20;;
13366;SDS011;6752;52.612;13.630;2023-07-29T14:50:52;1.50;;;1.40;;
13366;SDS011;6752;52.612;13.630;2023-07-29T14:55:55;1.33;;;1.23;;
13366;SDS011;6752;52.612;13.630;2023-07-29T15:00:57;1.37;;;1.27;;
13366;SDS011;6752;52.612;13.630;2023-07-29T15:05:59;1.57;;;1.20;;
13366;SDS011;6752;52.612;13.630;2023-07-29T15:11:02;1.30;;;1.20;;
13366;SDS011;6752;52.612;13.630;2023-07-29T15:16:04;1.40;;;1.30;;
13366;SDS011;6752;52.612;13.630;2023-07-29T15:21:06;1.50;;;1.40;;
13366;SDS011;6752;52.612;13.630;2023-07-29T15:26:09;1.80;;;1.70;;
13366;SDS011;6752;52.612;13.630;2023-07-29T15:31:12;1.50;;;1.40;;
13366;SDS011;6752;52.612;13.630;2023-07-29T15:36:13;1.70;;;1.60;;
13366;SDS011;6752;52.612;13.630;2023-07-29T15:41:16;1.40;;;1.30;;
13366;SDS011;6752;52.612;13.630;2023-07-29T15:46:18;1.60;;;1.50;;
13366;SDS011;6752;52.612;13.630;2023-07-29T15:51:20;1.80;;;1.70;;
13366;SDS011;6752;52.612;13.630;2023-07-29T15:56:23;1.70;;;1.60;;
13366;SDS011;6752;52.612;13.630;2023-07-29T16:01:25;1.80;;;1.70;;
13366;SDS011;6752;52.612;13.630;2023-07-29T16:06:28;1.90;;;1.80;;
13366;SDS011;6752;52.612;13.630;2023-07-29T16:11:30;2.13;;;1.90;;
13366;SDS011;6752;52.612;13.630;2023-07-29T16:16:32;2.67;;;2.28;;
13366;SDS011;6752;52.612;13.630;2023-07-29T16:21:35;2.57;;;2.37;;
13366;SDS011;6752;52.612;13.630;2023-07-29T16:26:37;3.00;;;2.00;;
13366;SDS011;6752;52.612;13.630;2023-07-29T16:31:39;2.57;;;2.37;;
13366;SDS011;6752;52.612;13.630;2023-07-29T16:36:42;1.90;;;1.80;;
13366;SDS011;6752;52.612;13.630;2023-07-29T16:41:44;3.37;;;2.33;;
13366;SDS011;6752;52.612;13.630;2023-07-29T16:46:46;2.47;;;2.20;;
13366;SDS011;6752;52.612;13.630;2023-07-29T16:51:49;2.23;;;2.03;;
13366;SDS011;6752;52.612;13.630;2023-07-29T16:56:51;2.97;;;2.30;;
13366;SDS011;6752;52.612;13.630;2023-07-29T17:01:53;3.00;;;2.43;;
13366;SDS011;6752;52.612;13.630;2023-07-29T17:06:56;2.10;;;1.90;;
13366;SDS011;6752;52.612;13.630;2023-07-29T17:11:58;2.27;;;2.03;;
13366;SDS011;6752;52.612;13.630;2023-07-29T17:17:01;2.33;;;2.13;;
13366;SDS011;6752;52.612;13.630;2023-07-29T17:22:03;2.57;;;2.37;;
13366;SDS011;6752;52.612;13.630;2023-07-29T17:27:05;2.70;;;2.50;;
13366;SDS011;6752;52.612;13.630;2023-07-29T17:32:08;2.53;;;2.17;;
13366;SDS011;6752;52.612;13.630;2023-07-29T17:37:10;2.67;;;2.27;;
13366;SDS011;6752;52.612;13.630;2023-07-29T17:42:12;2.57;;;2.37;;
13366;SDS011;6752;52.612;13.630;2023-07-29T17:47:15;2.80;;;2.40;;
13366;SDS011;6752;52.612;13.630;2023-07-29T17:52:17;3.47;;;2.97;;
13366;SDS011;6752;52.612;13.630;2023-07-29T17:57:19;2.80;;;2.50;;
13366;SDS011;6752;52.612;13.630;2023-07-29T18:02:22;4.23;;;3.20;;
13366;SDS011;6752;52.612;13.630;2023-07-29T18:07:24;2.93;;;2.57;;
13366;SDS011;6752;52.612;13.630;2023-07-29T18:12:26;3.63;;;2.70;;
13366;SDS011;6752;52.612;13.630;2023-07-29T18:17:29;3.57;;;2.90;;
13366;SDS011;6752;52.612;13.630;2023-07-29T18:22:31;3.60;;;3.00;;
13366;SDS011;6752;52.612;13.630;2023-07-29T18:27:34;3.90;;;3.40;;
13366;SDS011;6752;52.612;13.630;2023-07-29T18:32:36;3.70;;;3.30;;
13366;SDS011;6752;52.612;13.630;2023-07-29T18:37:38;4.40;;;3.17;;
13366;SDS011;6752;52.612;13.630;2023-07-29T18:42:41;4.47;;;3.50;;
13366;SDS011;6752;52.612;13.630;2023-07-29T18:47:43;3.67;;;3.20;;
13366;SDS011;6752;52.612;13.630;2023-07-29T18:52:45;3.50;;;3.17;;
13366;SDS011;6752;52.612;13.630;2023-07-29T18:57:48;4.33;;;3.40;;
13366;SDS011;6752;52.612;13.630;2023-07-29T19:02:50;5.43;;;4.00;;
13366;SDS011;6752;52.612;13.630;2023-07-29T19:07:52;5.63;;;4.07;;
13366;SDS011;6752;52.612;13.630;2023-07-29T19:12:55;4.53;;;3.80;;
13366;SDS011;6752;52.612;13.630;2023-07-29T19:17:57;4.30;;;3.90;;
13366;SDS011;6752;52.612;13.630;2023-07-29T19:22:59;4.57;;;3.90;;
13366;SDS011;6752;52.612;13.630;2023-07-29T19:28:02;5.63;;;4.73;;
13366;SDS011;6752;52.612;13.630;2023-07-29T19:33:04;5.20;;;4.67;;
13366;SDS011;6752;52.612;13.630;2023-07-29T19:38:07;5.57;;;4.97;;
13366;SDS011;6752;52.612;13.630;2023-07-29T19:43:09;4.17;;;3.77;;
13366;SDS011;6752;52.612;13.630;2023-07-29T19:48:11;4.60;;;3.97;;
13366;SDS011;6752;52.612;13.630;2023-07-29T19:53:14;5.13;;;4.13;;
13366;SDS011;6752;52.612;13.630;2023-07-29T19:58:16;4.85;;;4.20;;
13366;SDS011;6752;52.612;13.630;2023-07-29T20:03:18;4.30;;;3.30;;
13366;SDS011;6752;52.612;13.630;2023-07-29T20:08:21;3.85;;;3.45;;
13366;SDS011;6752;52.612;13.630;2023-07-29T20:13:23;3.77;;;3.23;;
13366;SDS011;6752;52.612;13.630;2023-07-29T20:18:25;5.30;;;4.00;;
13366;SDS011;6752;52.612;13.630;2023-07-29T20:23:28;4.87;;;4.37;;
13366;SDS011;6752;52.612;13.630;2023-07-29T20:28:30;4.57;;;3.57;;
13366;SDS011;6752;52.612;13.630;2023-07-29T20:33:33;5.43;;;4.60;;
13366;SDS011;6752;52.612;13.630;2023-07-29T20:38:35;4.30;;;3.77;;
13366;SDS011;6752;52.612;13.630;2023-07-29T20:43:37;4.53;;;4.00;;
13366;SDS011;6752;52.612;13.630;2023-07-29T20:48:40;4.67;;;3.90;;
13366;SDS011;6752;52.612;13.630;2023-07-29T20:53:42;4.30;;;3.77;;
13366;SDS011;6752;52.612;13.630;2023-07-29T20:58:44;4.80;;;3.87;;
13366;SDS011;6752;52.612;13.630;2023-07-29T21:03:47;4.63;;;3.80;;
13366;SDS011;6752;52.612;13.630;2023-07-29T21:08:49;4.67;;;4.00;;
13366;SDS011;6752;52.612;13.630;2023-07-29T21:13:51;5.50;;;4.07;;
13366;SDS011;6752;52.612;13.630;2023-07-29T21:18:54;3.93;;;3.50;;
13366;SDS011;6752;52.612;13.630;2023-07-29T21:23:56;4.87;;;4.30;;
13366;SDS011;6752;52.612;13.630;2023-07-29T21:28:59;5.10;;;4.60;;
13366;SDS011;6752;52.612;13.630;2023-07-29T21:34:01;5.73;;;4.77;;
13366;SDS011;6752;52.612;13.630;2023-07-29T21:39:04;6.03;;;5.20;;
13366;SDS011;6752;52.612;13.630;2023-07-29T21:44:06;6.10;;;5.50;;
13366;SDS011;6752;52.612;13.630;2023-07-29T21:49:11;10.30;;;8.03;;
13366;SDS011;6752;52.612;13.630;2023-07-29T21:54:14;9.13;;;8.07;;
13366;SDS011;6752;52.612;13.630;2023-07-29T21:59:16;7.93;;;7.13;;
13366;SDS011;6752;52.612;13.630;2023-07-29T22:04:18;7.12;;;6.47;;
13366;SDS011;6752;52.612;13.630;2023-07-29T22:09:21;6.93;;;6.23;;
13366;SDS011;6752;52.612;13.630;2023-07-29T22:14:23;7.17;;;6.47;;
13366;SDS011;6752;52.612;13.630;2023-07-29T22:19:25;7.07;;;6.37;;
13366;SDS011;6752;52.612;13.630;2023-07-29T22:24:28;6.87;;;6.20;;
13366;SDS011;6752;52.612;13.630;2023-07-29T22:29:30;7.37;;;6.60;;
13366;SDS011;6752;52.612;13.630;2023-07-29T22:34:32;6.93;;;6.23;;
13366;SDS011;6752;52.612;13.630;2023-07-29T22:39:35;7.50;;;6.37;;
13366;SDS011;6752;52.612;13.630;2023-07-29T22:44:37;6.10;;;5.50;;
13366;SDS011;6752;52.612;13.630;2023-07-29T22:49:41;5.97;;;5.40;;
13366;SDS011;6752;52.612;13.630;2023-07-29T22:54:42;7.70;;;6.90;;
13366;SDS011;6752;52.612;13.630;2023-07-29T22:59:44;7.33;;;6.63;;
13366;SDS011;6752;52.612;13.630;2023-07-29T23:04:47;7.07;;;6.37;;
13366;SDS011;6752;52.612;13.630;2023-07-29T23:09:49;8.53;;;7.73;;
13366;SDS011;6752;52.612;13.630;2023-07-29T23:14:51;7.55;;;6.85;;
13366;SDS011;6752;52.612;13.630;2023-07-29T23:19:54;6.77;;;6.07;;
13366;SDS011;6752;52.612;13.630;2023-07-29T23:24:56;6.60;;;5.93;;
13366;SDS011;6752;52.612;13.630;2023-07-29T23:29:58;6.50;;;5.70;;
13366;SDS011;6752;52.612;13.630;2023-07-29T23:35:01;7.33;;;6.60;;
13366;SDS011;6752;52.612;13.630;2023-07-29T23:40:03;8.17;;;7.37;;
13366;SDS011;6752;52.612;13.630;2023-07-29T23:45:06;8.40;;;7.60;;
13366;SDS011;6752;52.612;13.630;2023-07-29T23:50:08;6.97;;;6.27;;
13366;SDS011;6752;52.612;13.630;2023-07-29T23:55:10;7.23;;;6.50;;
